sensor_id;sensor_type;location;lat;lon;timestamp;P1;durP1;ratioP1;P2;durP2;ratioP2
83099;SDS011;72972;51.784;4.660;2024-02-16T00:00:17;5.18;;;2.58;;
83099;SDS011;72972;51.784;4.660;2024-02-16T00:02:46;3.55;;;2.40;;
83099;SDS011;72972;51.784;4.660;2024-02-16T00:05:12;3.80;;;2.55;;
83099;SDS011;72972;51.784;4.660;2024-02-16T00:07:38;5.72;;;2.80;;
83099;SDS011;72972;51.784;4.660;2024-02-16T00:10:04;4.85;;;3.05;;
83099;SDS011;72972;51.784;4.660;2024-02-16T00:12:32;4.38;;;3.05;;
83099;SDS011;72972;51.784;4.660;2024-02-16T00:15:03;4.18;;;2.70;;
83099;SDS011;72972;51.784;4.660;2024-02-16T00:17:32;4.78;;;3.22;;
83099;SDS011;72972;51.784;4.660;2024-02-16T00:19:58;4.03;;;2.53;;
83099;SDS011;72972;51.784;4.660;2024-02-16T00:22:28;4.63;;;2.95;;
83099;SDS011;72972;51.784;4.660;2024-02-16T00:24:54;4.15;;;3.00;;
83099;SDS011;72972;51.784;4.660;2024-02-16T00:27:19;3.83;;;2.92;;
83099;SDS011;72972;51.784;4.660;2024-02-16T00:29:45;3.95;;;2.67;;
83099;SDS011;72972;51.784;4.660;2024-02-16T00:32:14;4.88;;;3.15;;
83099;SDS011;72972;51.784;4.660;2024-02-16T00:34:40;6.03;;;2.90;;
83099;SDS011;72972;51.784;4.660;2024-02-16T00:37:06;3.92;;;2.92;;
83099;SDS011;72972;51.784;4.660;2024-02-16T00:39:39;3.75;;;2.75;;
83099;SDS011;72972;51.784;4.660;2024-02-16T00:42:09;4.45;;;2.67;;
83099;SDS011;72972;51.784;4.660;2024-02-16T00:44:37;4.28;;;3.13;;
83099;SDS011;72972;51.784;4.660;2024-02-16T00:47:15;4.97;;;3.15;;
83099;SDS011;72972;51.784;4.660;2024-02-16T00:50:02;2.92;;;1.95;;
83099;SDS011;72972;51.784;4.660;2024-02-16T00:52:47;4.95;;;3.17;;
83099;SDS011;72972;51.784;4.660;2024-02-16T00:55:24;3.45;;;2.70;;
83099;SDS011;72972;51.784;4.660;2024-02-16T00:57:53;4.20;;;2.75;;
83099;SDS011;72972;51.784;4.660;2024-02-16T01:00:23;5.80;;;2.97;;
83099;SDS011;72972;51.784;4.660;2024-02-16T01:02:52;4.57;;;2.40;;
83099;SDS011;72972;51.784;4.660;2024-02-16T01:05:18;4.90;;;2.65;;
83099;SDS011;72972;51.784;4.660;2024-02-16T01:07:44;4.18;;;2.70;;
83099;SDS011;72972;51.784;4.660;2024-02-16T01:10:13;3.63;;;2.70;;
83099;SDS011;72972;51.784;4.660;2024-02-16T01:12:42;3.25;;;2.40;;
83099;SDS011;72972;51.784;4.660;2024-02-16T01:15:10;4.53;;;2.95;;
83099;SDS011;72972;51.784;4.660;2024-02-16T01:17:42;4.30;;;2.90;;
83099;SDS011;72972;51.784;4.660;2024-02-16T01:20:12;4.22;;;2.92;;
83099;SDS011;72972;51.784;4.660;2024-02-16T01:22:38;4.68;;;3.20;;
83099;SDS011;72972;51.784;4.660;2024-02-16T01:25:04;5.15;;;2.80;;
83099;SDS011;72972;51.784;4.660;2024-02-16T01:27:31;4.43;;;2.78;;
83099;SDS011;72972;51.784;4.660;2024-02-16T01:29:57;5.10;;;2.35;;
83099;SDS011;72972;51.784;4.660;2024-02-16T01:32:22;5.07;;;2.88;;
83099;SDS011;72972;51.784;4.660;2024-02-16T01:34:51;7.60;;;2.95;;
83099;SDS011;72972;51.784;4.660;2024-02-16T01:37:20;4.10;;;2.83;;
83099;SDS011;72972;51.784;4.660;2024-02-16T01:39:49;4.10;;;2.50;;
83099;SDS011;72972;51.784;4.660;2024-02-16T01:42:15;4.03;;;2.40;;
83099;SDS011;72972;51.784;4.660;2024-02-16T01:44:44;4.75;;;2.60;;
83099;SDS011;72972;51.784;4.660;2024-02-16T01:47:12;5.10;;;2.70;;
83099;SDS011;72972;51.784;4.660;2024-02-16T01:49:39;4.18;;;2.50;;
83099;SDS011;72972;51.784;4.660;2024-02-16T01:52:07;3.95;;;2.83;;
83099;SDS011;72972;51.784;4.660;2024-02-16T01:54:36;5.82;;;3.00;;
83099;SDS011;72972;51.784;4.660;2024-02-16T01:57:14;4.05;;;2.83;;
83099;SDS011;72972;51.784;4.660;2024-02-16T01:59:40;4.10;;;2.65;;
83099;SDS011;72972;51.784;4.660;2024-02-16T02:02:09;5.97;;;3.00;;
83099;SDS011;72972;51.784;4.660;2024-02-16T02:04:36;6.30;;;2.92;;
83099;SDS011;72972;51.784;4.660;2024-02-16T02:07:10;5.68;;;2.80;;
83099;SDS011;72972;51.784;4.660;2024-02-16T02:09:43;4.40;;;2.53;;
83099;SDS011;72972;51.784;4.660;2024-02-16T02:12:14;4.53;;;2.78;;
83099;SDS011;72972;51.784;4.660;2024-02-16T02:14:40;4.35;;;3.15;;
83099;SDS011;72972;51.784;4.660;2024-02-16T02:17:07;4.93;;;2.50;;
83099;SDS011;72972;51.784;4.660;2024-02-16T02:19:35;5.50;;;3.10;;
83099;SDS011;72972;51.784;4.660;2024-02-16T02:22:01;4.43;;;3.10;;
83099;SDS011;72972;51.784;4.660;2024-02-16T02:24:32;5.03;;;2.65;;
83099;SDS011;72972;51.784;4.660;2024-02-16T02:27:01;5.68;;;2.88;;
83099;SDS011;72972;51.784;4.660;2024-02-16T02:29:28;3.80;;;2.75;;
83099;SDS011;72972;51.784;4.660;2024-02-16T02:31:54;3.58;;;2.60;;
83099;SDS011;72972;51.784;4.660;2024-02-16T02:34:25;4.25;;;2.92;;
83099;SDS011;72972;51.784;4.660;2024-02-16T02:36:54;4.68;;;2.90;;
83099;SDS011;72972;51.784;4.660;2024-02-16T02:39:22;4.07;;;2.92;;
83099;SDS011;72972;51.784;4.660;2024-02-16T02:41:51;3.85;;;2.80;;
83099;SDS011;72972;51.784;4.660;2024-02-16T02:44:22;4.00;;;2.70;;
83099;SDS011;72972;51.784;4.660;2024-02-16T02:46:48;6.53;;;2.95;;
83099;SDS011;72972;51.784;4.660;2024-02-16T02:49:20;5.00;;;2.72;;
83099;SDS011;72972;51.784;4.660;2024-02-16T02:51:45;4.75;;;3.05;;
83099;SDS011;72972;51.784;4.660;2024-02-16T02:54:11;7.63;;;2.92;;
83099;SDS011;72972;51.784;4.660;2024-02-16T02:56:48;4.95;;;3.22;;
83099;SDS011;72972;51.784;4.660;2024-02-16T02:59:19;3.38;;;2.30;;
83099;SDS011;72972;51.784;4.660;2024-02-16T03:01:47;4.68;;;3.08;;
83099;SDS011;72972;51.784;4.660;2024-02-16T03:04:13;4.45;;;2.85;;
83099;SDS011;72972;51.784;4.660;2024-02-16T03:06:39;4.60;;;2.83;;
83099;SDS011;72972;51.784;4.660;2024-02-16T03:09:08;2.83;;;2.40;;
83099;SDS011;72972;51.784;4.660;2024-02-16T03:11:36;4.88;;;3.05;;
83099;SDS011;72972;51.784;4.660;2024-02-16T03:14:02;5.00;;;2.90;;
83099;SDS011;72972;51.784;4.660;2024-02-16T03:16:33;4.18;;;2.90;;
83099;SDS011;72972;51.784;4.660;2024-02-16T03:19:04;5.07;;;2.85;;
83099;SDS011;72972;51.784;4.660;2024-02-16T03:23:57;4.25;;;2.90;;
83099;SDS011;72972;51.784;4.660;2024-02-16T03:26:23;5.82;;;3.10;;
83099;SDS011;72972;51.784;4.660;2024-02-16T03:28:49;3.45;;;2.67;;
83099;SDS011;72972;51.784;4.660;2024-02-16T03:31:20;4.38;;;2.75;;
83099;SDS011;72972;51.784;4.660;2024-02-16T03:33:52;5.10;;;3.08;;
83099;SDS011;72972;51.784;4.660;2024-02-16T03:36:23;6.32;;;3.25;;
83099;SDS011;72972;51.784;4.660;2024-02-16T03:38:50;5.72;;;2.80;;
83099;SDS011;72972;51.784;4.660;2024-02-16T03:41:28;5.60;;;2.78;;
83099;SDS011;72972;51.784;4.660;2024-02-16T03:44:09;4.15;;;2.88;;
83099;SDS011;72972;51.784;4.660;2024-02-16T03:46:36;4.80;;;2.88;;
83099;SDS011;72972;51.784;4.660;2024-02-16T03:49:05;9.00;;;3.08;;
83099;SDS011;72972;51.784;4.660;2024-02-16T03:51:40;5.72;;;2.97;;
83099;SDS011;72972;51.784;4.660;2024-02-16T03:54:08;9.85;;;3.47;;
83099;SDS011;72972;51.784;4.660;2024-02-16T03:56:36;5.22;;;3.10;;
83099;SDS011;72972;51.784;4.660;2024-02-16T03:59:04;4.38;;;2.90;;
83099;SDS011;72972;51.784;4.660;2024-02-16T04:01:33;9.02;;;3.28;;
83099;SDS011;72972;51.784;4.660;2024-02-16T04:04:01;4.00;;;2.83;;
83099;SDS011;72972;51.784;4.660;2024-02-16T04:06:33;11.35;;;2.97;;
83099;SDS011;72972;51.784;4.660;2024-02-16T04:09:04;6.28;;;3.42;;
83099;SDS011;72972;51.784;4.660;2024-02-16T04:11:33;4.75;;;3.35;;
83099;SDS011;72972;51.784;4.660;2024-02-16T04:14:01;5.35;;;3.20;;
83099;SDS011;72972;51.784;4.660;2024-02-16T04:16:45;5.10;;;2.83;;
83099;SDS011;72972;51.784;4.660;2024-02-16T04:19:13;5.25;;;2.95;;
83099;SDS011;72972;51.784;4.660;2024-02-16T04:21:39;5.72;;;3.28;;
83099;SDS011;72972;51.784;4.660;2024-02-16T04:24:05;7.18;;;3.13;;
83099;SDS011;72972;51.784;4.660;2024-02-16T04:26:31;3.92;;;2.95;;
83099;SDS011;72972;51.784;4.660;2024-02-16T04:28:57;4.15;;;2.83;;
83099;SDS011;72972;51.784;4.660;2024-02-16T04:31:31;5.55;;;3.20;;
83099;SDS011;72972;51.784;4.660;2024-02-16T04:34:00;4.00;;;2.97;;
83099;SDS011;72972;51.784;4.660;2024-02-16T04:36:29;5.63;;;3.00;;
83099;SDS011;72972;51.784;4.660;2024-02-16T04:38:55;3.97;;;3.10;;
83099;SDS011;72972;51.784;4.660;2024-02-16T04:41:23;5.20;;;3.13;;
83099;SDS011;72972;51.784;4.660;2024-02-16T04:43:49;6.82;;;3.67;;
83099;SDS011;72972;51.784;4.660;2024-02-16T04:46:18;3.60;;;2.40;;
83099;SDS011;72972;51.784;4.660;2024-02-16T04:48:44;5.03;;;3.13;;
83099;SDS011;72972;51.784;4.660;2024-02-16T04:51:12;5.45;;;3.45;;
83099;SDS011;72972;51.784;4.660;2024-02-16T04:53:41;6.03;;;3.17;;
83099;SDS011;72972;51.784;4.660;2024-02-16T04:56:16;6.68;;;2.78;;
83099;SDS011;72972;51.784;4.660;2024-02-16T04:58:42;6.18;;;3.35;;
83099;SDS011;72972;51.784;4.660;2024-02-16T05:01:10;5.68;;;3.22;;
83099;SDS011;72972;51.784;4.660;2024-02-16T05:03:43;8.38;;;3.42;;
83099;SDS011;72972;51.784;4.660;2024-02-16T05:06:09;6.28;;;3.33;;
83099;SDS011;72972;51.784;4.660;2024-02-16T05:08:49;5.93;;;3.50;;
83099;SDS011;72972;51.784;4.660;2024-02-16T05:11:17;9.55;;;3.13;;
83099;SDS011;72972;51.784;4.660;2024-02-16T05:13:57;5.43;;;3.47;;
83099;SDS011;72972;51.784;4.660;2024-02-16T05:16:23;5.40;;;3.67;;
83099;SDS011;72972;51.784;4.660;2024-02-16T05:18:52;5.13;;;3.30;;
83099;SDS011;72972;51.784;4.660;2024-02-16T05:21:27;5.65;;;3.50;;
83099;SDS011;72972;51.784;4.660;2024-02-16T05:23:53;4.10;;;3.25;;
83099;SDS011;72972;51.784;4.660;2024-02-16T05:26:21;4.47;;;3.60;;
83099;SDS011;72972;51.784;4.660;2024-02-16T05:28:50;6.13;;;3.28;;
83099;SDS011;72972;51.784;4.660;2024-02-16T05:31:18;6.88;;;3.13;;
83099;SDS011;72972;51.784;4.660;2024-02-16T05:33:48;4.32;;;3.33;;
83099;SDS011;72972;51.784;4.660;2024-02-16T05:36:21;4.82;;;3.10;;
83099;SDS011;72972;51.784;4.660;2024-02-16T05:38:56;5.68;;;3.63;;
83099;SDS011;72972;51.784;4.660;2024-02-16T05:41:34;6.30;;;3.45;;
83099;SDS011;72972;51.784;4.660;2024-02-16T05:44:09;10.90;;;3.30;;
83099;SDS011;72972;51.784;4.660;2024-02-16T05:46:41;5.70;;;3.70;;
83099;SDS011;72972;51.784;4.660;2024-02-16T05:49:11;7.38;;;3.42;;
83099;SDS011;72972;51.784;4.660;2024-02-16T05:51:51;7.65;;;3.88;;
83099;SDS011;72972;51.784;4.660;2024-02-16T05:54:46;7.43;;;3.63;;
83099;SDS011;72972;51.784;4.660;2024-02-16T05:57:14;6.75;;;3.55;;
83099;SDS011;72972;51.784;4.660;2024-02-16T05:59:45;10.73;;;4.00;;
83099;SDS011;72972;51.784;4.660;2024-02-16T06:02:13;7.10;;;3.80;;
83099;SDS011;72972;51.784;4.660;2024-02-16T06:04:44;7.68;;;3.72;;
83099;SDS011;72972;51.784;4.660;2024-02-16T06:07:13;9.23;;;3.90;;
83099;SDS011;72972;51.784;4.660;2024-02-16T06:09:42;5.28;;;3.90;;
83099;SDS011;72972;51.784;4.660;2024-02-16T06:12:16;6.15;;;3.97;;
83099;SDS011;72972;51.784;4.660;2024-02-16T06:14:42;6.60;;;4.40;;
83099;SDS011;72972;51.784;4.660;2024-02-16T06:17:13;7.82;;;4.25;;
83099;SDS011;72972;51.784;4.660;2024-02-16T06:19:43;7.63;;;4.28;;
83099;SDS011;72972;51.784;4.660;2024-02-16T06:22:09;7.18;;;4.03;;
83099;SDS011;72972;51.784;4.660;2024-02-16T06:24:38;8.70;;;4.50;;
83099;SDS011;72972;51.784;4.660;2024-02-16T06:27:15;5.97;;;3.90;;
83099;SDS011;72972;51.784;4.660;2024-02-16T06:29:42;8.90;;;4.03;;
83099;SDS011;72972;51.784;4.660;2024-02-16T06:32:08;6.85;;;4.00;;
83099;SDS011;72972;51.784;4.660;2024-02-16T06:34:38;5.40;;;4.07;;
83099;SDS011;72972;51.784;4.660;2024-02-16T06:37:10;7.40;;;4.63;;
83099;SDS011;72972;51.784;4.660;2024-02-16T06:39:44;8.23;;;4.45;;
83099;SDS011;72972;51.784;4.660;2024-02-16T06:42:22;6.55;;;4.43;;
83099;SDS011;72972;51.784;4.660;2024-02-16T06:44:53;6.35;;;4.00;;
83099;SDS011;72972;51.784;4.660;2024-02-16T06:47:22;9.70;;;4.40;;
83099;SDS011;72972;51.784;4.660;2024-02-16T06:49:50;8.40;;;4.55;;
83099;SDS011;72972;51.784;4.660;2024-02-16T06:52:19;7.43;;;4.75;;
83099;SDS011;72972;51.784;4.660;2024-02-16T06:54:48;9.15;;;4.25;;
83099;SDS011;72972;51.784;4.660;2024-02-16T06:57:15;6.55;;;4.43;;
83099;SDS011;72972;51.784;4.660;2024-02-16T06:59:55;4.70;;;3.67;;
83099;SDS011;72972;51.784;4.660;2024-02-16T07:02:25;7.55;;;3.95;;
83099;SDS011;72972;51.784;4.660;2024-02-16T07:05:02;9.85;;;4.50;;
83099;SDS011;72972;51.784;4.660;2024-02-16T07:07:48;5.88;;;4.03;;
83099;SDS011;72972;51.784;4.660;2024-02-16T07:10:19;6.63;;;4.20;;
83099;SDS011;72972;51.784;4.660;2024-02-16T07:12:52;10.57;;;4.47;;
83099;SDS011;72972;51.784;4.660;2024-02-16T07:15:26;7.50;;;3.67;;
83099;SDS011;72972;51.784;4.660;2024-02-16T07:17:57;10.82;;;4.90;;
83099;SDS011;72972;51.784;4.660;2024-02-16T07:20:28;6.07;;;3.95;;
83099;SDS011;72972;51.784;4.660;2024-02-16T07:22:59;9.90;;;4.35;;
83099;SDS011;72972;51.784;4.660;2024-02-16T07:25:31;6.55;;;3.90;;
83099;SDS011;72972;51.784;4.660;2024-02-16T07:28:03;11.20;;;4.00;;
83099;SDS011;72972;51.784;4.660;2024-02-16T07:30:32;6.28;;;4.00;;
83099;SDS011;72972;51.784;4.660;2024-02-16T07:33:05;10.85;;;4.00;;
83099;SDS011;72972;51.784;4.660;2024-02-16T07:35:36;6.82;;;3.83;;
83099;SDS011;72972;51.784;4.660;2024-02-16T07:38:12;7.80;;;4.53;;
83099;SDS011;72972;51.784;4.660;2024-02-16T07:40:53;4.90;;;3.30;;
83099;SDS011;72972;51.784;4.660;2024-02-16T07:43:27;7.68;;;3.65;;
83099;SDS011;72972;51.784;4.660;2024-02-16T07:45:53;7.13;;;4.00;;
83099;SDS011;72972;51.784;4.660;2024-02-16T07:48:31;6.10;;;3.40;;
83099;SDS011;72972;51.784;4.660;2024-02-16T07:51:05;7.50;;;4.47;;
83099;SDS011;72972;51.784;4.660;2024-02-16T07:53:37;7.72;;;3.95;;
83099;SDS011;72972;51.784;4.660;2024-02-16T07:56:07;5.95;;;3.40;;
83099;SDS011;72972;51.784;4.660;2024-02-16T07:58:33;6.72;;;3.90;;
83099;SDS011;72972;51.784;4.660;2024-02-16T08:01:02;7.13;;;4.70;;
83099;SDS011;72972;51.784;4.660;2024-02-16T08:04:08;8.93;;;4.28;;
83099;SDS011;72972;51.784;4.660;2024-02-16T08:06:51;11.75;;;4.30;;
83099;SDS011;72972;51.784;4.660;2024-02-16T08:09:26;8.35;;;4.28;;
83099;SDS011;72972;51.784;4.660;2024-02-16T08:12:04;8.30;;;4.68;;
83099;SDS011;72972;51.784;4.660;2024-02-16T08:14:41;8.88;;;5.25;;
83099;SDS011;72972;51.784;4.660;2024-02-16T08:17:22;8.15;;;4.50;;
83099;SDS011;72972;51.784;4.660;2024-02-16T08:19:53;6.95;;;3.60;;
83099;SDS011;72972;51.784;4.660;2024-02-16T08:22:29;12.85;;;4.65;;
83099;SDS011;72972;51.784;4.660;2024-02-16T08:25:14;7.72;;;4.82;;
83099;SDS011;72972;51.784;4.660;2024-02-16T08:27:54;6.05;;;3.58;;
83099;SDS011;72972;51.784;4.660;2024-02-16T08:30:22;7.18;;;4.20;;
83099;SDS011;72972;51.784;4.660;2024-02-16T08:32:57;6.78;;;3.88;;
83099;SDS011;72972;51.784;4.660;2024-02-16T08:35:41;8.55;;;4.35;;
83099;SDS011;72972;51.784;4.660;2024-02-16T08:38:13;6.50;;;4.40;;
83099;SDS011;72972;51.784;4.660;2024-02-16T08:40:53;10.02;;;4.13;;
83099;SDS011;72972;51.784;4.660;2024-02-16T08:43:44;8.45;;;4.65;;
83099;SDS011;72972;51.784;4.660;2024-02-16T08:46:13;6.78;;;4.30;;
83099;SDS011;72972;51.784;4.660;2024-02-16T08:48:39;7.80;;;4.15;;
83099;SDS011;72972;51.784;4.660;2024-02-16T08:51:15;8.68;;;4.32;;
83099;SDS011;72972;51.784;4.660;2024-02-16T08:53:41;10.57;;;4.90;;
83099;SDS011;72972;51.784;4.660;2024-02-16T08:56:10;7.50;;;4.78;;
83099;SDS011;72972;51.784;4.660;2024-02-16T08:58:42;6.13;;;4.97;;
83099;SDS011;72972;51.784;4.660;2024-02-16T09:01:44;8.88;;;4.88;;
83099;SDS011;72972;51.784;4.660;2024-02-16T09:04:32;7.78;;;4.65;;
83099;SDS011;72972;51.784;4.660;2024-02-16T09:07:18;10.75;;;5.85;;
83099;SDS011;72972;51.784;4.660;2024-02-16T09:10:19;10.48;;;5.22;;
83099;SDS011;72972;51.784;4.660;2024-02-16T09:13:15;9.18;;;4.55;;
83099;SDS011;72972;51.784;4.660;2024-02-16T09:15:59;14.02;;;5.68;;
83099;SDS011;72972;51.784;4.660;2024-02-16T09:22:13;10.30;;;5.22;;
83099;SDS011;72972;51.784;4.660;2024-02-16T09:28:21;10.18;;;5.53;;
83099;SDS011;72972;51.784;4.660;2024-02-16T09:31:03;13.93;;;5.95;;
83099;SDS011;72972;51.784;4.660;2024-02-16T09:33:45;10.40;;;5.45;;
83099;SDS011;72972;51.784;4.660;2024-02-16T09:36:22;11.48;;;5.93;;
83099;SDS011;72972;51.784;4.660;2024-02-16T09:38:56;12.63;;;5.72;;
83099;SDS011;72972;51.784;4.660;2024-02-16T09:41:49;12.73;;;6.03;;
83099;SDS011;72972;51.784;4.660;2024-02-16T09:44:37;10.68;;;5.97;;
83099;SDS011;72972;51.784;4.660;2024-02-16T09:50:14;9.48;;;5.82;;
83099;SDS011;72972;51.784;4.660;2024-02-16T09:53:00;13.50;;;6.40;;
83099;SDS011;72972;51.784;4.660;2024-02-16T09:56:34;15.45;;;5.65;;
83099;SDS011;72972;51.784;4.660;2024-02-16T09:59:58;12.32;;;5.60;;
83099;SDS011;72972;51.784;4.660;2024-02-16T10:02:40;13.32;;;6.93;;
83099;SDS011;72972;51.784;4.660;2024-02-16T10:05:36;9.30;;;6.30;;
83099;SDS011;72972;51.784;4.660;2024-02-16T10:08:18;13.45;;;6.50;;
83099;SDS011;72972;51.784;4.660;2024-02-16T10:11:34;10.90;;;6.63;;
83099;SDS011;72972;51.784;4.660;2024-02-16T10:14:27;13.52;;;6.57;;
83099;SDS011;72972;51.784;4.660;2024-02-16T10:17:09;9.60;;;6.28;;
83099;SDS011;72972;51.784;4.660;2024-02-16T10:19:55;10.73;;;6.40;;
83099;SDS011;72972;51.784;4.660;2024-02-16T10:22:37;9.70;;;7.18;;
83099;SDS011;72972;51.784;4.660;2024-02-16T10:25:06;12.65;;;6.90;;
83099;SDS011;72972;51.784;4.660;2024-02-16T10:28:04;11.02;;;6.15;;
83099;SDS011;72972;51.784;4.660;2024-02-16T10:30:58;10.82;;;6.72;;
83099;SDS011;72972;51.784;4.660;2024-02-16T10:34:21;13.80;;;6.57;;
83099;SDS011;72972;51.784;4.660;2024-02-16T10:36:56;12.90;;;6.85;;
83099;SDS011;72972;51.784;4.660;2024-02-16T10:39:29;13.10;;;7.43;;
83099;SDS011;72972;51.784;4.660;2024-02-16T10:41:59;12.82;;;8.68;;
83099;SDS011;72972;51.784;4.660;2024-02-16T10:44:32;19.10;;;7.55;;
83099;SDS011;72972;51.784;4.660;2024-02-16T10:47:06;12.70;;;8.70;;
83099;SDS011;72972;51.784;4.660;2024-02-16T10:49:34;15.32;;;7.93;;
83099;SDS011;72972;51.784;4.660;2024-02-16T10:52:00;13.45;;;8.05;;
83099;SDS011;72972;51.784;4.660;2024-02-16T10:54:50;14.43;;;7.97;;
83099;SDS011;72972;51.784;4.660;2024-02-16T10:57:25;12.55;;;8.13;;
83099;SDS011;72972;51.784;4.660;2024-02-16T11:00:00;19.02;;;9.30;;
83099;SDS011;72972;51.784;4.660;2024-02-16T11:02:52;20.45;;;9.50;;
83099;SDS011;72972;51.784;4.660;2024-02-16T11:08:03;15.60;;;9.07;;
83099;SDS011;72972;51.784;4.660;2024-02-16T11:10:58;19.33;;;9.20;;
83099;SDS011;72972;51.784;4.660;2024-02-16T11:13:34;12.40;;;7.25;;
83099;SDS011;72972;51.784;4.660;2024-02-16T11:16:13;12.00;;;8.00;;
83099;SDS011;72972;51.784;4.660;2024-02-16T11:18:46;15.32;;;9.23;;
83099;SDS011;72972;51.784;4.660;2024-02-16T11:21:17;12.35;;;8.10;;
83099;SDS011;72972;51.784;4.660;2024-02-16T11:23:46;15.77;;;8.50;;
83099;SDS011;72972;51.784;4.660;2024-02-16T11:26:13;18.75;;;8.90;;
83099;SDS011;72972;51.784;4.660;2024-02-16T11:28:45;15.98;;;8.45;;
83099;SDS011;72972;51.784;4.660;2024-02-16T11:31:11;13.52;;;7.78;;
83099;SDS011;72972;51.784;4.660;2024-02-16T11:33:42;16.30;;;8.82;;
83099;SDS011;72972;51.784;4.660;2024-02-16T11:36:16;15.90;;;8.15;;
83099;SDS011;72972;51.784;4.660;2024-02-16T11:39:00;15.90;;;8.45;;
83099;SDS011;72972;51.784;4.660;2024-02-16T11:41:46;14.55;;;7.70;;
83099;SDS011;72972;51.784;4.660;2024-02-16T11:44:21;19.23;;;8.63;;
83099;SDS011;72972;51.784;4.660;2024-02-16T11:47:19;15.82;;;8.18;;
83099;SDS011;72972;51.784;4.660;2024-02-16T11:50:22;13.60;;;7.53;;
83099;SDS011;72972;51.784;4.660;2024-02-16T11:53:04;17.88;;;8.27;;
83099;SDS011;72972;51.784;4.660;2024-02-16T11:55:53;15.27;;;8.38;;
83099;SDS011;72972;51.784;4.660;2024-02-16T11:58:34;15.60;;;8.50;;
83099;SDS011;72972;51.784;4.660;2024-02-16T12:01:02;14.38;;;8.38;;
83099;SDS011;72972;51.784;4.660;2024-02-16T12:03:42;14.00;;;8.10;;
83099;SDS011;72972;51.784;4.660;2024-02-16T12:09:14;14.27;;;8.85;;
83099;SDS011;72972;51.784;4.660;2024-02-16T12:11:44;19.38;;;11.80;;
83099;SDS011;72972;51.784;4.660;2024-02-16T12:14:13;12.43;;;7.32;;
83099;SDS011;72972;51.784;4.660;2024-02-16T12:16:50;17.98;;;7.93;;
83099;SDS011;72972;51.784;4.660;2024-02-16T12:19:22;13.80;;;8.38;;
83099;SDS011;72972;51.784;4.660;2024-02-16T12:22:10;14.75;;;8.65;;
83099;SDS011;72972;51.784;4.660;2024-02-16T12:24:45;9.93;;;7.07;;
83099;SDS011;72972;51.784;4.660;2024-02-16T12:31:03;9.73;;;6.40;;
83099;SDS011;72972;51.784;4.660;2024-02-16T12:34:05;12.68;;;6.00;;
83099;SDS011;72972;51.784;4.660;2024-02-16T12:36:43;11.27;;;6.10;;
83099;SDS011;72972;51.784;4.660;2024-02-16T12:39:16;9.13;;;6.40;;
83099;SDS011;72972;51.784;4.660;2024-02-16T12:49:42;11.73;;;7.40;;
83099;SDS011;72972;51.784;4.660;2024-02-16T12:52:19;8.55;;;5.75;;
83099;SDS011;72972;51.784;4.660;2024-02-16T12:54:51;10.85;;;5.57;;
83099;SDS011;72972;51.784;4.660;2024-02-16T12:58:20;8.30;;;5.28;;
83099;SDS011;72972;51.784;4.660;2024-02-16T13:00:56;8.27;;;4.78;;
83099;SDS011;72972;51.784;4.660;2024-02-16T13:03:25;8.85;;;5.22;;
83099;SDS011;72972;51.784;4.660;2024-02-16T13:06:12;7.95;;;4.90;;
83099;SDS011;72972;51.784;4.660;2024-02-16T13:08:43;9.23;;;5.60;;
83099;SDS011;72972;51.784;4.660;2024-02-16T13:11:34;8.10;;;5.40;;
83099;SDS011;72972;51.784;4.660;2024-02-16T13:14:05;8.35;;;5.97;;
83099;SDS011;72972;51.784;4.660;2024-02-16T13:16:56;9.77;;;5.60;;
83099;SDS011;72972;51.784;4.660;2024-02-16T13:19:41;5.70;;;4.50;;
83099;SDS011;72972;51.784;4.660;2024-02-16T13:22:07;10.43;;;5.97;;
83099;SDS011;72972;51.784;4.660;2024-02-16T13:24:39;7.85;;;5.30;;
83099;SDS011;72972;51.784;4.660;2024-02-16T13:27:26;7.78;;;5.18;;
83099;SDS011;72972;51.784;4.660;2024-02-16T13:29:54;7.72;;;4.70;;
83099;SDS011;72972;51.784;4.660;2024-02-16T13:32:23;12.00;;;5.82;;
83099;SDS011;72972;51.784;4.660;2024-02-16T13:38:33;9.00;;;5.38;;
83099;SDS011;72972;51.784;4.660;2024-02-16T13:41:07;8.32;;;5.00;;
83099;SDS011;72972;51.784;4.660;2024-02-16T13:43:38;8.45;;;5.35;;
83099;SDS011;72972;51.784;4.660;2024-02-16T13:46:12;8.60;;;5.10;;
83099;SDS011;72972;51.784;4.660;2024-02-16T13:48:53;10.15;;;4.93;;
83099;SDS011;72972;51.784;4.660;2024-02-16T13:51:25;7.47;;;4.32;;
83099;SDS011;72972;51.784;4.660;2024-02-16T13:53:51;8.00;;;4.85;;
83099;SDS011;72972;51.784;4.660;2024-02-16T13:56:31;6.95;;;4.68;;
83099;SDS011;72972;51.784;4.660;2024-02-16T13:59:04;6.35;;;4.20;;
83099;SDS011;72972;51.784;4.660;2024-02-16T14:01:33;7.15;;;4.00;;
83099;SDS011;72972;51.784;4.660;2024-02-16T14:04:14;6.18;;;3.85;;
83099;SDS011;72972;51.784;4.660;2024-02-16T14:07:09;7.50;;;4.53;;
83099;SDS011;72972;51.784;4.660;2024-02-16T14:12:48;5.93;;;3.58;;
83099;SDS011;72972;51.784;4.660;2024-02-16T14:15:20;8.13;;;4.22;;
83099;SDS011;72972;51.784;4.660;2024-02-16T14:17:54;5.47;;;3.88;;
83099;SDS011;72972;51.784;4.660;2024-02-16T14:20:26;6.53;;;4.18;;
83099;SDS011;72972;51.784;4.660;2024-02-16T14:22:57;7.60;;;4.28;;
83099;SDS011;72972;51.784;4.660;2024-02-16T14:25:36;9.60;;;4.60;;
83099;SDS011;72972;51.784;4.660;2024-02-16T14:28:05;7.47;;;4.78;;
83099;SDS011;72972;51.784;4.660;2024-02-16T14:30:43;10.90;;;4.80;;
83099;SDS011;72972;51.784;4.660;2024-02-16T14:33:28;6.97;;;4.13;;
83099;SDS011;72972;51.784;4.660;2024-02-16T14:35:57;8.27;;;5.25;;
83099;SDS011;72972;51.784;4.660;2024-02-16T14:38:25;9.68;;;5.03;;
83099;SDS011;72972;51.784;4.660;2024-02-16T14:40:52;12.60;;;5.20;;
83099;SDS011;72972;51.784;4.660;2024-02-16T14:43:21;8.55;;;4.75;;
83099;SDS011;72972;51.784;4.660;2024-02-16T14:45:53;7.80;;;4.72;;
83099;SDS011;72972;51.784;4.660;2024-02-16T14:48:18;7.53;;;4.07;;
83099;SDS011;72972;51.784;4.660;2024-02-16T14:50:44;10.57;;;4.28;;
83099;SDS011;72972;51.784;4.660;2024-02-16T14:53:11;8.45;;;4.03;;
83099;SDS011;72972;51.784;4.660;2024-02-16T14:55:36;9.40;;;3.95;;
83099;SDS011;72972;51.784;4.660;2024-02-16T14:58:10;7.20;;;3.70;;
83099;SDS011;72972;51.784;4.660;2024-02-16T15:00:44;8.05;;;4.10;;
83099;SDS011;72972;51.784;4.660;2024-02-16T15:03:13;6.68;;;4.05;;
83099;SDS011;72972;51.784;4.660;2024-02-16T15:05:40;8.18;;;4.05;;
83099;SDS011;72972;51.784;4.660;2024-02-16T15:08:09;6.82;;;3.95;;
83099;SDS011;72972;51.784;4.660;2024-02-16T15:10:41;9.10;;;4.25;;
83099;SDS011;72972;51.784;4.660;2024-02-16T15:13:10;6.35;;;4.00;;
83099;SDS011;72972;51.784;4.660;2024-02-16T15:15:55;5.90;;;3.75;;
83099;SDS011;72972;51.784;4.660;2024-02-16T15:18:37;5.25;;;3.38;;
83099;SDS011;72972;51.784;4.660;2024-02-16T15:21:06;6.97;;;4.20;;
83099;SDS011;72972;51.784;4.660;2024-02-16T15:23:35;8.13;;;3.97;;
83099;SDS011;72972;51.784;4.660;2024-02-16T15:26:09;10.35;;;3.70;;
83099;SDS011;72972;51.784;4.660;2024-02-16T15:28:38;6.90;;;4.03;;
83099;SDS011;72972;51.784;4.660;2024-02-16T15:31:05;7.80;;;3.65;;
83099;SDS011;72972;51.784;4.660;2024-02-16T15:33:34;6.22;;;3.88;;
83099;SDS011;72972;51.784;4.660;2024-02-16T15:36:03;10.15;;;4.90;;
83099;SDS011;72972;51.784;4.660;2024-02-16T15:38:50;8.25;;;4.57;;
83099;SDS011;72972;51.784;4.660;2024-02-16T15:41:18;6.70;;;4.28;;
83099;SDS011;72972;51.784;4.660;2024-02-16T15:46:14;6.32;;;3.53;;
83099;SDS011;72972;51.784;4.660;2024-02-16T15:48:43;12.88;;;4.07;;
83099;SDS011;72972;51.784;4.660;2024-02-16T15:51:21;10.02;;;4.10;;
83099;SDS011;72972;51.784;4.660;2024-02-16T15:56:53;11.35;;;4.65;;
83099;SDS011;72972;51.784;4.660;2024-02-16T15:59:33;7.88;;;4.13;;
83099;SDS011;72972;51.784;4.660;2024-02-16T16:02:03;9.23;;;6.40;;
83099;SDS011;72972;51.784;4.660;2024-02-16T16:04:46;5.55;;;3.70;;
83099;SDS011;72972;51.784;4.660;2024-02-16T16:07:14;6.50;;;4.05;;